sensor_id;sensor_type;location;lat;lon;timestamp;pressure;altitude;pressure_sealevel;temperature;humidity
57412;BME280;43247;52.828;-8.980;2023-10-08T00:00:55;102064.01;;;15.67;97.81
57412;BME280;43247;52.828;-8.980;2023-10-08T00:01:56;102066.28;;;15.67;97.83
57412;BME280;43247;52.828;-8.980;2023-10-08T00:02:56;102065.30;;;15.67;97.74
57412;BME280;43247;52.828;-8.980;2023-10-08T00:03:56;102066.61;;;15.66;97.79
57412;BME280;43247;52.828;-8.980;2023-10-08T00:04:57;102070.06;;;15.66;97.83
57412;BME280;43247;52.828;-8.980;2023-10-08T00:05:57;102076.43;;;15.65;97.80
57412;BME280;43247;52.828;-8.980;2023-10-08T00:06:58;102078.17;;;15.65;97.72
57412;BME280;43247;52.828;-8.980;2023-10-08T00:07:58;102074.94;;;15.64;97.83
57412;BME280;43247;52.828;-8.980;2023-10-08T00:08:58;102069.59;;;15.63;97.76
57412;BME280;43247;52.828;-8.980;2023-10-08T00:09:59;102062.93;;;15.62;97.75
57412;BME280;43247;52.828;-8.980;2023-10-08T00:10:59;102061.31;;;15.62;97.82
57412;BME280;43247;52.828;-8.980;2023-10-08T00:12:00;102058.41;;;15.62;97.78
57412;BME280;43247;52.828;-8.980;2023-10-08T00:13:00;102055.81;;;15.62;97.77
57412;BME280;43247;52.828;-8.980;2023-10-08T00:14:01;102054.34;;;15.61;97.85
57412;BME280;43247;52.828;-8.980;2023-10-08T00:15:02;102056.29;;;15.60;97.90
57412;BME280;43247;52.828;-8.980;2023-10-08T00:16:02;102061.61;;;15.60;97.89
57412;BME280;43247;52.828;-8.980;2023-10-08T00:17:02;102063.88;;;15.59;97.83
57412;BME280;43247;52.828;-8.980;2023-10-08T00:18:03;102065.49;;;15.59;97.84
57412;BME280;43247;52.828;-8.980;2023-10-08T00:19:03;102068.89;;;15.58;97.77
57412;BME280;43247;52.828;-8.980;2023-10-08T00:20:04;102068.23;;;15.57;97.83
57412;BME280;43247;52.828;-8.980;2023-10-08T00:21:04;102069.18;;;15.57;97.79
57412;BME280;43247;52.828;-8.980;2023-10-08T00:22:04;102064.01;;;15.56;97.76
57412;BME280;43247;52.828;-8.980;2023-10-08T00:23:05;102062.86;;;15.56;97.75
57412;BME280;43247;52.828;-8.980;2023-10-08T00:24:06;102063.78;;;15.55;97.78
57412;BME280;43247;52.828;-8.980;2023-10-08T00:25:06;102064.99;;;15.55;97.80
57412;BME280;43247;52.828;-8.980;2023-10-08T00:26:07;102065.74;;;15.54;97.84
57412;BME280;43247;52.828;-8.980;2023-10-08T00:27:08;102064.73;;;15.54;97.82
57412;BME280;43247;52.828;-8.980;2023-10-08T00:28:08;102066.86;;;15.53;97.80
57412;BME280;43247;52.828;-8.980;2023-10-08T00:29:09;102070.65;;;15.53;97.82
57412;BME280;43247;52.828;-8.980;2023-10-08T00:30:09;102069.09;;;15.52;97.85
57412;BME280;43247;52.828;-8.980;2023-10-08T00:31:08;102064.84;;;15.51;97.77
57412;BME280;43247;52.828;-8.980;2023-10-08T00:32:09;102066.45;;;15.51;97.79
57412;BME280;43247;52.828;-8.980;2023-10-08T00:33:10;102070.66;;;15.51;97.78
57412;BME280;43247;52.828;-8.980;2023-10-08T00:34:11;102075.46;;;15.50;97.80
57412;BME280;43247;52.828;-8.980;2023-10-08T00:35:11;102073.75;;;15.50;97.82
57412;BME280;43247;52.828;-8.980;2023-10-08T00:36:11;102073.90;;;15.49;97.82
57412;BME280;43247;52.828;-8.980;2023-10-08T00:37:12;102074.92;;;15.48;97.84
57412;BME280;43247;52.828;-8.980;2023-10-08T00:38:12;102078.10;;;15.48;97.93
57412;BME280;43247;52.828;-8.980;2023-10-08T00:39:14;102084.68;;;15.47;97.88
57412;BME280;43247;52.828;-8.980;2023-10-08T00:40:14;102086.99;;;15.46;97.81
57412;BME280;43247;52.828;-8.980;2023-10-08T00:41:14;102083.31;;;15.46;97.89
57412;BME280;43247;52.828;-8.980;2023-10-08T00:42:15;102078.83;;;15.44;97.86
57412;BME280;43247;52.828;-8.980;2023-10-08T00:44:15;102079.58;;;15.43;97.90
57412;BME280;43247;52.828;-8.980;2023-10-08T00:45:16;102082.93;;;15.43;97.96
57412;BME280;43247;52.828;-8.980;2023-10-08T00:46:17;102085.26;;;15.42;97.90
57412;BME280;43247;52.828;-8.980;2023-10-08T00:47:17;102087.43;;;15.42;97.94
57412;BME280;43247;52.828;-8.980;2023-10-08T00:48:18;102088.83;;;15.42;97.85
57412;BME280;43247;52.828;-8.980;2023-10-08T00:49:22;102090.08;;;15.41;97.88
57412;BME280;43247;52.828;-8.980;2023-10-08T00:50:19;102093.77;;;15.41;97.86
57412;BME280;43247;52.828;-8.980;2023-10-08T00:51:19;102095.80;;;15.41;97.88
57412;BME280;43247;52.828;-8.980;2023-10-08T00:52:20;102093.98;;;15.40;97.91
57412;BME280;43247;52.828;-8.980;2023-10-08T00:53:20;102095.64;;;15.40;97.93
57412;BME280;43247;52.828;-8.980;2023-10-08T00:54:20;102092.53;;;15.39;97.89
57412;BME280;43247;52.828;-8.980;2023-10-08T00:55:21;102091.05;;;15.39;97.98
57412;BME280;43247;52.828;-8.980;2023-10-08T00:56:21;102094.74;;;15.37;97.93
57412;BME280;43247;52.828;-8.980;2023-10-08T00:57:22;102096.12;;;15.37;98.00
57412;BME280;43247;52.828;-8.980;2023-10-08T00:58:22;102095.90;;;15.37;98.01
57412;BME280;43247;52.828;-8.980;2023-10-08T00:59:22;102093.68;;;15.36;98.01
57412;BME280;43247;52.828;-8.980;2023-10-08T01:00:22;102092.24;;;15.36;98.13
57412;BME280;43247;52.828;-8.980;2023-10-08T01:01:22;102095.32;;;15.36;98.08
57412;BME280;43247;52.828;-8.980;2023-10-08T01:02:26;102098.50;;;15.36;97.97
57412;BME280;43247;52.828;-8.980;2023-10-08T01:03:24;102094.45;;;15.37;97.96
57412;BME280;43247;52.828;-8.980;2023-10-08T01:04:24;102090.11;;;15.36;98.06
57412;BME280;43247;52.828;-8.980;2023-10-08T01:05:25;102096.77;;;15.35;97.95
57412;BME280;43247;52.828;-8.980;2023-10-08T01:06:24;102103.70;;;15.34;98.04
57412;BME280;43247;52.828;-8.980;2023-10-08T01:07:25;102105.65;;;15.33;98.17
57412;BME280;43247;52.828;-8.980;2023-10-08T01:08:25;102102.15;;;15.32;98.33
57412;BME280;43247;52.828;-8.980;2023-10-08T01:09:26;102100.67;;;15.31;98.37
57412;BME280;43247;52.828;-8.980;2023-10-08T01:10:26;102100.90;;;15.31;98.41
57412;BME280;43247;52.828;-8.980;2023-10-08T01:11:27;102100.30;;;15.31;98.41
57412;BME280;43247;52.828;-8.980;2023-10-08T01:12:27;102093.18;;;15.30;98.38
57412;BME280;43247;52.828;-8.980;2023-10-08T01:13:31;102091.63;;;15.30;98.43
57412;BME280;43247;52.828;-8.980;2023-10-08T01:14:29;102096.51;;;15.30;98.40
57412;BME280;43247;52.828;-8.980;2023-10-08T01:15:30;102097.42;;;15.30;98.36
57412;BME280;43247;52.828;-8.980;2023-10-08T01:16:30;102098.73;;;15.30;98.33
57412;BME280;43247;52.828;-8.980;2023-10-08T01:17:31;102097.94;;;15.30;98.32
57412;BME280;43247;52.828;-8.980;2023-10-08T01:18:31;102094.10;;;15.30;98.30
57412;BME280;43247;52.828;-8.980;2023-10-08T01:19:32;102089.59;;;15.30;98.34
57412;BME280;43247;52.828;-8.980;2023-10-08T01:20:32;102089.17;;;15.30;98.23
57412;BME280;43247;52.828;-8.980;2023-10-08T01:21:32;102089.23;;;15.30;98.22
57412;BME280;43247;52.828;-8.980;2023-10-08T01:22:33;102090.93;;;15.30;98.22
57412;BME280;43247;52.828;-8.980;2023-10-08T01:23:33;102089.95;;;15.30;98.20
57412;BME280;43247;52.828;-8.980;2023-10-08T01:24:34;102093.81;;;15.29;98.25
57412;BME280;43247;52.828;-8.980;2023-10-08T01:25:35;102094.07;;;15.29;98.24
57412;BME280;43247;52.828;-8.980;2023-10-08T01:26:36;102090.72;;;15.29;98.21
57412;BME280;43247;52.828;-8.980;2023-10-08T01:27:36;102087.76;;;15.28;98.22
57412;BME280;43247;52.828;-8.980;2023-10-08T01:28:37;102082.62;;;15.28;98.16
57412;BME280;43247;52.828;-8.980;2023-10-08T01:29:38;102079.42;;;15.28;98.24
57412;BME280;43247;52.828;-8.980;2023-10-08T01:30:37;102076.29;;;15.28;98.15
57412;BME280;43247;52.828;-8.980;2023-10-08T01:31:37;102068.67;;;15.28;98.21
57412;BME280;43247;52.828;-8.980;2023-10-08T01:32:38;102067.44;;;15.27;98.23
57412;BME280;43247;52.828;-8.980;2023-10-08T01:33:38;102063.02;;;15.26;98.17
57412;BME280;43247;52.828;-8.980;2023-10-08T01:34:39;102061.43;;;15.24;98.28
57412;BME280;43247;52.828;-8.980;2023-10-08T01:35:40;102060.73;;;15.24;98.28
57412;BME280;43247;52.828;-8.980;2023-10-08T01:36:39;102060.82;;;15.23;98.31
57412;BME280;43247;52.828;-8.980;2023-10-08T01:37:39;102061.47;;;15.23;98.32
57412;BME280;43247;52.828;-8.980;2023-10-08T01:38:40;102063.06;;;15.22;98.36
57412;BME280;43247;52.828;-8.980;2023-10-08T01:39:40;102060.64;;;15.23;98.35
57412;BME280;43247;52.828;-8.980;2023-10-08T01:40:41;102057.16;;;15.22;98.43
57412;BME280;43247;52.828;-8.980;2023-10-08T01:41:43;102055.41;;;15.23;98.36
57412;BME280;43247;52.828;-8.980;2023-10-08T01:42:42;102051.71;;;15.23;98.24
57412;BME280;43247;52.828;-8.980;2023-10-08T01:43:43;102046.26;;;15.22;98.26
57412;BME280;43247;52.828;-8.980;2023-10-08T01:44:44;102046.59;;;15.23;98.30
57412;BME280;43247;52.828;-8.980;2023-10-08T01:45:44;102050.02;;;15.22;98.37
57412;BME280;43247;52.828;-8.980;2023-10-08T01:46:44;102048.65;;;15.21;98.35
57412;BME280;43247;52.828;-8.980;2023-10-08T01:47:45;102049.71;;;15.20;98.44
57412;BME280;43247;52.828;-8.980;2023-10-08T01:48:46;102046.00;;;15.19;98.38
57412;BME280;43247;52.828;-8.980;2023-10-08T01:49:46;102043.64;;;15.19;98.38
57412;BME280;43247;52.828;-8.980;2023-10-08T01:50:47;102043.07;;;15.19;98.38
57412;BME280;43247;52.828;-8.980;2023-10-08T01:51:47;102036.84;;;15.19;98.40
57412;BME280;43247;52.828;-8.980;2023-10-08T01:52:48;102032.44;;;15.19;98.35
57412;BME280;43247;52.828;-8.980;2023-10-08T01:53:48;102029.33;;;15.18;98.38
57412;BME280;43247;52.828;-8.980;2023-10-08T01:54:48;102036.38;;;15.18;98.36
57412;BME280;43247;52.828;-8.980;2023-10-08T01:55:48;102045.88;;;15.18;98.35
57412;BME280;43247;52.828;-8.980;2023-10-08T01:56:49;102052.15;;;15.18;98.35
57412;BME280;43247;52.828;-8.980;2023-10-08T01:57:50;102058.61;;;15.17;98.29
57412;BME280;43247;52.828;-8.980;2023-10-08T01:58:50;102063.23;;;15.17;98.35
57412;BME280;43247;52.828;-8.980;2023-10-08T01:59:50;102064.56;;;15.17;98.32
57412;BME280;43247;52.828;-8.980;2023-10-08T02:00:53;102064.46;;;15.16;98.34
57412;BME280;43247;52.828;-8.980;2023-10-08T02:01:52;102060.88;;;15.16;98.37
57412;BME280;43247;52.828;-8.980;2023-10-08T02:02:52;102059.11;;;15.16;98.37
57412;BME280;43247;52.828;-8.980;2023-10-08T02:03:52;102060.83;;;15.15;98.34
57412;BME280;43247;52.828;-8.980;2023-10-08T02:04:52;102064.68;;;15.15;98.40
57412;BME280;43247;52.828;-8.980;2023-10-08T02:05:53;102066.38;;;15.15;98.37
57412;BME280;43247;52.828;-8.980;2023-10-08T02:06:53;102065.07;;;15.14;98.42
57412;BME280;43247;52.828;-8.980;2023-10-08T02:07:54;102061.41;;;15.14;98.37
57412;BME280;43247;52.828;-8.980;2023-10-08T02:08:54;102058.71;;;15.14;98.31
57412;BME280;43247;52.828;-8.980;2023-10-08T02:09:54;102061.23;;;15.13;98.39
57412;BME280;43247;52.828;-8.980;2023-10-08T02:10:55;102062.30;;;15.13;98.30
57412;BME280;43247;52.828;-8.980;2023-10-08T02:11:55;102061.21;;;15.12;98.45
57412;BME280;43247;52.828;-8.980;2023-10-08T02:12:55;102057.12;;;15.12;98.41
57412;BME280;43247;52.828;-8.980;2023-10-08T02:13:56;102054.92;;;15.12;98.54
57412;BME280;43247;52.828;-8.980;2023-10-08T02:14:56;102053.41;;;15.12;98.41
57412;BME280;43247;52.828;-8.980;2023-10-08T02:15:57;102052.25;;;15.12;98.40
57412;BME280;43247;52.828;-8.980;2023-10-08T02:16:58;102053.96;;;15.11;98.45
57412;BME280;43247;52.828;-8.980;2023-10-08T02:17:57;102059.55;;;15.11;98.44
57412;BME280;43247;52.828;-8.980;2023-10-08T02:18:58;102063.06;;;15.11;98.43
57412;BME280;43247;52.828;-8.980;2023-10-08T02:19:58;102069.73;;;15.11;98.44
57412;BME280;43247;52.828;-8.980;2023-10-08T02:20:58;102084.54;;;15.11;98.47
57412;BME280;43247;52.828;-8.980;2023-10-08T02:21:59;102100.80;;;15.11;98.44
57412;BME280;43247;52.828;-8.980;2023-10-08T02:22:59;102105.23;;;15.11;98.42
57412;BME280;43247;52.828;-8.980;2023-10-08T02:23:59;102104.27;;;15.11;98.39
57412;BME280;43247;52.828;-8.980;2023-10-08T02:24:59;102098.83;;;15.10;98.41
57412;BME280;43247;52.828;-8.980;2023-10-08T02:26:00;102096.58;;;15.10;98.40
57412;BME280;43247;52.828;-8.980;2023-10-08T02:27:00;102094.43;;;15.09;98.44
57412;BME280;43247;52.828;-8.980;2023-10-08T02:28:02;102092.24;;;15.09;98.46
57412;BME280;43247;52.828;-8.980;2023-10-08T02:29:00;102091.62;;;15.09;98.45
57412;BME280;43247;52.828;-8.980;2023-10-08T02:30:01;102085.17;;;15.10;98.46
57412;BME280;43247;52.828;-8.980;2023-10-08T02:31:02;102077.63;;;15.10;98.34
57412;BME280;43247;52.828;-8.980;2023-10-08T02:32:02;102072.86;;;15.08;98.50
57412;BME280;43247;52.828;-8.980;2023-10-08T02:33:03;102069.30;;;15.07;98.57
57412;BME280;43247;52.828;-8.980;2023-10-08T02:34:03;102071.46;;;15.08;98.58
57412;BME280;43247;52.828;-8.980;2023-10-08T02:35:04;102077.29;;;15.09;98.49
57412;BME280;43247;52.828;-8.980;2023-10-08T02:36:04;102087.21;;;15.09;98.45
57412;BME280;43247;52.828;-8.980;2023-10-08T02:37:05;102095.05;;;15.09;98.42
57412;BME280;43247;52.828;-8.980;2023-10-08T02:38:05;102103.00;;;15.08;98.49
57412;BME280;43247;52.828;-8.980;2023-10-08T02:39:05;102105.14;;;15.08;98.51
57412;BME280;43247;52.828;-8.980;2023-10-08T02:40:07;102100.19;;;15.08;98.41
57412;BME280;43247;52.828;-8.980;2023-10-08T02:41:06;102098.06;;;15.08;98.47
57412;BME280;43247;52.828;-8.980;2023-10-08T02:42:06;102094.90;;;15.08;98.46
57412;BME280;43247;52.828;-8.980;2023-10-08T02:43:07;102094.60;;;15.08;98.49
57412;BME280;43247;52.828;-8.980;2023-10-08T02:44:08;102092.72;;;15.08;98.49
57412;BME280;43247;52.828;-8.980;2023-10-08T02:45:09;102089.20;;;15.08;98.39
57412;BME280;43247;52.828;-8.980;2023-10-08T02:46:08;102087.76;;;15.07;98.46
57412;BME280;43247;52.828;-8.980;2023-10-08T02:47:09;102086.54;;;15.07;98.49
57412;BME280;43247;52.828;-8.980;2023-10-08T02:48:09;102092.12;;;15.07;98.59
57412;BME280;43247;52.828;-8.980;2023-10-08T02:49:10;102094.80;;;15.06;98.54
57412;BME280;43247;52.828;-8.980;2023-10-08T02:50:11;102095.54;;;15.06;98.56
57412;BME280;43247;52.828;-8.980;2023-10-08T02:51:11;102094.96;;;15.05;98.62
57412;BME280;43247;52.828;-8.980;2023-10-08T02:52:11;102095.14;;;15.05;98.55
57412;BME280;43247;52.828;-8.980;2023-10-08T02:53:12;102093.43;;;15.05;98.48
57412;BME280;43247;52.828;-8.980;2023-10-08T02:54:12;102091.26;;;15.05;98.61
57412;BME280;43247;52.828;-8.980;2023-10-08T02:55:12;102094.42;;;15.04;98.59
57412;BME280;43247;52.828;-8.980;2023-10-08T02:56:12;102096.33;;;15.03;98.51
57412;BME280;43247;52.828;-8.980;2023-10-08T02:57:13;102098.62;;;15.03;98.63
57412;BME280;43247;52.828;-8.980;2023-10-08T02:58:14;102100.54;;;15.02;98.81
57412;BME280;43247;52.828;-8.980;2023-10-08T02:59:14;102096.36;;;15.01;98.92
57412;BME280;43247;52.828;-8.980;2023-10-08T03:00:14;102095.97;;;15.00;98.85
57412;BME280;43247;52.828;-8.980;2023-10-08T03:01:14;102093.91;;;15.00;98.64
57412;BME280;43247;52.828;-8.980;2023-10-08T03:02:15;102092.15;;;15.00;98.41
57412;BME280;43247;52.828;-8.980;2023-10-08T03:03:17;102087.06;;;15.01;98.29
57412;BME280;43247;52.828;-8.980;2023-10-08T03:04:16;102078.09;;;15.01;98.11
57412;BME280;43247;52.828;-8.980;2023-10-08T03:05:16;102075.28;;;15.00;98.04
57412;BME280;43247;52.828;-8.980;2023-10-08T03:06:16;102074.04;;;15.00;97.91
57412;BME280;43247;52.828;-8.980;2023-10-08T03:07:17;102071.92;;;15.01;97.89
57412;BME280;43247;52.828;-8.980;2023-10-08T03:08:18;102076.93;;;15.01;97.88
57412;BME280;43247;52.828;-8.980;2023-10-08T03:09:18;102076.04;;;15.01;97.78
57412;BME280;43247;52.828;-8.980;2023-10-08T03:10:18;102074.85;;;15.01;97.80
57412;BME280;43247;52.828;-8.980;2023-10-08T03:11:18;102070.46;;;15.01;97.72
57412;BME280;43247;52.828;-8.980;2023-10-08T03:12:18;102063.90;;;15.01;97.72
57412;BME280;43247;52.828;-8.980;2023-10-08T03:13:19;102056.51;;;15.01;97.67
57412;BME280;43247;52.828;-8.980;2023-10-08T03:14:20;102049.82;;;15.01;97.64
57412;BME280;43247;52.828;-8.980;2023-10-08T03:15:20;102040.54;;;15.01;97.65
57412;BME280;43247;52.828;-8.980;2023-10-08T03:16:21;102035.00;;;15.01;97.74
57412;BME280;43247;52.828;-8.980;2023-10-08T03:17:21;102034.73;;;15.00;97.69
57412;BME280;43247;52.828;-8.980;2023-10-08T03:18:22;102038.82;;;15.00;97.72
57412;BME280;43247;52.828;-8.980;2023-10-08T03:19:23;102040.45;;;15.01;97.66
57412;BME280;43247;52.828;-8.980;2023-10-08T03:20:23;102042.89;;;15.00;97.69
57412;BME280;43247;52.828;-8.980;2023-10-08T03:21:24;102042.80;;;15.00;97.74
57412;BME280;43247;52.828;-8.980;2023-10-08T03:22:24;102045.16;;;15.00;97.67
57412;BME280;43247;52.828;-8.980;2023-10-08T03:23:24;102048.13;;;15.00;97.74
57412;BME280;43247;52.828;-8.980;2023-10-08T03:24:25;102053.30;;;14.99;97.75
57412;BME280;43247;52.828;-8.980;2023-10-08T03:25:25;102051.68;;;14.99;97.88
57412;BME280;43247;52.828;-8.980;2023-10-08T03:26:25;102047.57;;;14.99;97.82
57412;BME280;43247;52.828;-8.980;2023-10-08T03:27:25;102042.08;;;14.99;97.80
57412;BME280;43247;52.828;-8.980;2023-10-08T03:28:26;102043.43;;;14.98;97.89
57412;BME280;43247;52.828;-8.980;2023-10-08T03:29:26;102041.88;;;14.97;97.93
57412;BME280;43247;52.828;-8.980;2023-10-08T03:30:27;102039.87;;;14.97;97.89
57412;BME280;43247;52.828;-8.980;2023-10-08T03:31:27;102037.74;;;14.97;97.83
57412;BME280;43247;52.828;-8.980;2023-10-08T03:32:28;102041.48;;;14.97;97.85
57412;BME280;43247;52.828;-8.980;2023-10-08T03:33:29;102043.53;;;14.96;97.87
57412;BME280;43247;52.828;-8.980;2023-10-08T03:34:29;102047.09;;;14.96;97.89
57412;BME280;43247;52.828;-8.980;2023-10-08T03:35:29;102046.08;;;14.96;97.85
57412;BME280;43247;52.828;-8.980;2023-10-08T03:36:29;102046.99;;;14.96;97.83
57412;BME280;43247;52.828;-8.980;2023-10-08T03:37:30;102046.76;;;14.95;97.79
57412;BME280;43247;52.828;-8.980;2023-10-08T03:38:30;102045.30;;;14.93;97.63
57412;BME280;43247;52.828;-8.980;2023-10-08T03:39:31;102045.65;;;14.92;97.28
57412;BME280;43247;52.828;-8.980;2023-10-08T03:40:31;102048.37;;;14.92;97.15
57412;BME280;43247;52.828;-8.980;2023-10-08T03:41:32;102050.53;;;14.92;96.96
57412;BME280;43247;52.828;-8.980;2023-10-08T03:42:33;102053.20;;;14.92;96.96
57412;BME280;43247;52.828;-8.980;2023-10-08T03:43:33;102052.36;;;14.91;96.90
57412;BME280;43247;52.828;-8.980;2023-10-08T03:44:34;102052.33;;;14.92;96.82
57412;BME280;43247;52.828;-8.980;2023-10-08T03:45:34;102050.65;;;14.92;96.86
57412;BME280;43247;52.828;-8.980;2023-10-08T03:46:35;102048.69;;;14.91;96.93
57412;BME280;43247;52.828;-8.980;2023-10-08T03:47:36;102045.40;;;14.92;97.02
57412;BME280;43247;52.828;-8.980;2023-10-08T03:48:35;102042.33;;;14.91;96.94
57412;BME280;43247;52.828;-8.980;2023-10-08T03:49:36;102041.99;;;14.91;96.99
57412;BME280;43247;52.828;-8.980;2023-10-08T03:50:36;102044.76;;;14.91;97.05
57412;BME280;43247;52.828;-8.980;2023-10-08T03:51:36;102042.63;;;14.91;96.99
57412;BME280;43247;52.828;-8.980;2023-10-08T03:52:37;102047.22;;;14.91;97.02
57412;BME280;43247;52.828;-8.980;2023-10-08T03:53:38;102050.82;;;14.91;97.00
57412;BME280;43247;52.828;-8.980;2023-10-08T03:54:38;102059.47;;;14.91;97.05
57412;BME280;43247;52.828;-8.980;2023-10-08T03:55:39;102067.02;;;14.90;97.04
57412;BME280;43247;52.828;-8.980;2023-10-08T03:56:39;102078.47;;;14.90;97.16
57412;BME280;43247;52.828;-8.980;2023-10-08T03:57:40;102079.56;;;14.90;97.12
57412;BME280;43247;52.828;-8.980;2023-10-08T03:58:41;102076.98;;;14.89;97.15
57412;BME280;43247;52.828;-8.980;2023-10-08T03:59:41;102075.44;;;14.89;97.21
57412;BME280;43247;52.828;-8.980;2023-10-08T04:00:43;102077.13;;;14.88;97.26
57412;BME280;43247;52.828;-8.980;2023-10-08T04:01:42;102076.88;;;14.87;97.34
57412;BME280;43247;52.828;-8.980;2023-10-08T04:02:43;102071.15;;;14.87;97.30
57412;BME280;43247;52.828;-8.980;2023-10-08T04:03:43;102073.54;;;14.86;97.51
57412;BME280;43247;52.828;-8.980;2023-10-08T04:04:44;102078.32;;;14.86;97.53
57412;BME280;43247;52.828;-8.980;2023-10-08T04:05:44;102078.77;;;14.85;97.48
57412;BME280;43247;52.828;-8.980;2023-10-08T04:06:44;102069.88;;;14.85;97.54
57412;BME280;43247;52.828;-8.980;2023-10-08T04:07:45;102065.99;;;14.86;97.51
57412;BME280;43247;52.828;-8.980;2023-10-08T04:08:45;102071.99;;;14.85;97.59
57412;BME280;43247;52.828;-8.980;2023-10-08T04:09:45;102076.87;;;14.86;97.65
57412;BME280;43247;52.828;-8.980;2023-10-08T04:10:46;102074.29;;;14.85;97.65
57412;BME280;43247;52.828;-8.980;2023-10-08T04:11:46;102070.68;;;14.85;97.67
57412;BME280;43247;52.828;-8.980;2023-10-08T04:12:47;102071.49;;;14.85;97.73
57412;BME280;43247;52.828;-8.980;2023-10-08T04:13:47;102072.68;;;14.84;97.71
57412;BME280;43247;52.828;-8.980;2023-10-08T04:14:48;102074.80;;;14.85;97.82
57412;BME280;43247;52.828;-8.980;2023-10-08T04:15:48;102079.30;;;14.84;97.79
57412;BME280;43247;52.828;-8.980;2023-10-08T04:16:49;102079.35;;;14.83;97.93
57412;BME280;43247;52.828;-8.980;2023-10-08T04:17:49;102077.22;;;14.83;97.95
57412;BME280;43247;52.828;-8.980;2023-10-08T04:18:49;102072.85;;;14.82;97.97
57412;BME280;43247;52.828;-8.980;2023-10-08T04:19:50;102068.63;;;14.82;97.99
57412;BME280;43247;52.828;-8.980;2023-10-08T04:20:50;102065.68;;;14.82;98.01
57412;BME280;43247;52.828;-8.980;2023-10-08T04:21:51;102063.99;;;14.82;98.12
57412;BME280;43247;52.828;-8.980;2023-10-08T04:22:51;102065.87;;;14.82;98.12
57412;BME280;43247;52.828;-8.980;2023-10-08T04:23:51;102067.66;;;14.81;98.11
57412;BME280;43247;52.828;-8.980;2023-10-08T04:24:52;102070.59;;;14.82;98.09
57412;BME280;43247;52.828;-8.980;2023-10-08T04:25:53;102072.88;;;14.82;98.10
57412;BME280;43247;52.828;-8.980;2023-10-08T04:26:54;102075.94;;;14.82;98.09
57412;BME280;43247;52.828;-8.980;2023-10-08T04:27:54;102081.93;;;14.82;98.10
57412;BME280;43247;52.828;-8.980;2023-10-08T04:28:55;102081.99;;;14.81;98.18
57412;BME280;43247;52.828;-8.980;2023-10-08T04:29:55;102083.81;;;14.81;98.19
57412;BME280;43247;52.828;-8.980;2023-10-08T04:30:55;102084.48;;;14.82;98.16
57412;BME280;43247;52.828;-8.980;2023-10-08T04:31:56;102080.80;;;14.81;98.18
57412;BME280;43247;52.828;-8.980;2023-10-08T04:32:56;102080.63;;;14.81;98.26
57412;BME280;43247;52.828;-8.980;2023-10-08T04:33:56;102079.29;;;14.81;98.25
57412;BME280;43247;52.828;-8.980;2023-10-08T04:34:57;102069.22;;;14.80;98.25
57412;BME280;43247;52.828;-8.980;2023-10-08T04:35:57;102068.91;;;14.80;98.33
57412;BME280;43247;52.828;-8.980;2023-10-08T04:36:58;102070.27;;;14.79;98.25
57412;BME280;43247;52.828;-8.980;2023-10-08T04:37:59;102069.62;;;14.79;98.26
57412;BME280;43247;52.828;-8.980;2023-10-08T04:38:59;102068.25;;;14.79;98.27
57412;BME280;43247;52.828;-8.980;2023-10-08T04:39:59;102067.89;;;14.78;98.30
57412;BME280;43247;52.828;-8.980;2023-10-08T04:40:59;102062.06;;;14.78;98.27
57412;BME280;43247;52.828;-8.980;2023-10-08T04:42:00;102058.73;;;14.79;98.27
57412;BME280;43247;52.828;-8.980;2023-10-08T04:43:00;102049.85;;;14.78;98.38
57412;BME280;43247;52.828;-8.980;2023-10-08T04:44:00;102045.76;;;14.78;98.29
57412;BME280;43247;52.828;-8.980;2023-10-08T04:45:01;102045.44;;;14.78;98.39
57412;BME280;43247;52.828;-8.980;2023-10-08T04:46:01;102052.35;;;14.78;98.41
57412;BME280;43247;52.828;-8.980;2023-10-08T04:47:02;102056.72;;;14.78;98.41
57412;BME280;43247;52.828;-8.980;2023-10-08T04:48:03;102057.81;;;14.77;98.41
57412;BME280;43247;52.828;-8.980;2023-10-08T04:49:04;102056.11;;;14.77;98.44
57412;BME280;43247;52.828;-8.980;2023-10-08T04:50:05;102054.54;;;14.77;98.41
57412;BME280;43247;52.828;-8.980;2023-10-08T04:51:04;102053.80;;;14.77;98.48
57412;BME280;43247;52.828;-8.980;2023-10-08T04:52:06;102054.78;;;14.77;98.44
57412;BME280;43247;52.828;-8.980;2023-10-08T04:53:05;102058.28;;;14.77;98.48
57412;BME280;43247;52.828;-8.980;2023-10-08T04:54:05;102063.20;;;14.77;98.40
57412;BME280;43247;52.828;-8.980;2023-10-08T04:55:06;102066.92;;;14.77;98.52
57412;BME280;43247;52.828;-8.980;2023-10-08T04:56:07;102067.43;;;14.76;98.45
57412;BME280;43247;52.828;-8.980;2023-10-08T04:57:07;102071.92;;;14.76;98.48
57412;BME280;43247;52.828;-8.980;2023-10-08T04:58:06;102071.41;;;14.75;98.48
57412;BME280;43247;52.828;-8.980;2023-10-08T04:59:07;102076.28;;;14.75;98.50
57412;BME280;43247;52.828;-8.980;2023-10-08T05:00:08;102079.95;;;14.76;98.55
57412;BME280;43247;52.828;-8.980;2023-10-08T05:01:08;102084.12;;;14.75;98.49
57412;BME280;43247;52.828;-8.980;2023-10-08T05:02:09;102082.28;;;14.75;98.51
57412;BME280;43247;52.828;-8.980;2023-10-08T05:03:09;102087.43;;;14.74;98.56
57412;BME280;43247;52.828;-8.980;2023-10-08T05:04:09;102094.28;;;14.74;98.51
57412;BME280;43247;52.828;-8.980;2023-10-08T05:05:09;102101.19;;;14.74;98.51
57412;BME280;43247;52.828;-8.980;2023-10-08T05:06:09;102098.99;;;14.73;98.56
57412;BME280;43247;52.828;-8.980;2023-10-08T05:07:10;102100.32;;;14.73;98.57
57412;BME280;43247;52.828;-8.980;2023-10-08T05:08:11;102105.57;;;14.72;98.59
57412;BME280;43247;52.828;-8.980;2023-10-08T05:09:12;102108.11;;;14.72;98.57
57412;BME280;43247;52.828;-8.980;2023-10-08T05:10:13;102109.45;;;14.71;98.59
57412;BME280;43247;52.828;-8.980;2023-10-08T05:11:13;102112.96;;;14.71;98.59
57412;BME280;43247;52.828;-8.980;2023-10-08T05:12:13;102112.19;;;14.71;98.60
57412;BME280;43247;52.828;-8.980;2023-10-08T05:13:13;102113.15;;;14.72;98.61